Time;durP1;ratioP1;P1;durP2;ratioP2;P2;SDS_P1;SDS_P2;PMS_P1;PMS_P2;Temp;Humidity;BMP_temperature;BMP_pressure;BME280_temperature;BME280_humidity;BME280_pressure;Samples;Min_cycle;Max_cycle;Signal;HPM_P1;HPM_P2
2023/05/09 00:01:13;;;;;;;8.38;2.22;;;;;;;;;;4950169;28;20114;-64
2023/05/09 00:03:39;;;;;;;5.80;1.70;;;;;;;;;;4952505;28;20122;-64
2023/05/09 00:06:06;;;;;;;5.88;1.30;;;;;;;;;;4946704;28;20038;-64
2023/05/09 00:08:32;;;;;;;7.05;1.70;;;;;;;;;;4932565;28;20397;-64
2023/05/09 00:10:58;;;;;;;8.13;1.45;;;;;;;;;;4931395;28;20038;-64
2023/05/09 00:13:25;;;;;;;7.38;1.95;;;;;;;;;;4943911;28;20549;-65
2023/05/09 00:15:56;;;;;;;5.97;1.50;;;;;;;;;;4944982;28;20038;-64
2023/05/09 00:18:22;;;;;;;8.43;1.75;;;;;;;;;;4935506;28;20077;-64
2023/05/09 00:20:49;;;;;;;6.88;1.77;;;;;;;;;;4932935;28;20031;-63
2023/05/09 00:23:15;;;;;;;7.07;1.60;;;;;;;;;;4947772;28;20882;-63
2023/05/09 00:25:41;;;;;;;5.68;1.20;;;;;;;;;;4946260;28;20057;-64
2023/05/09 00:28:08;;;;;;;5.97;1.40;;;;;;;;;;4930227;28;20157;-64
2023/05/09 00:30:34;;;;;;;5.38;1.35;;;;;;;;;;4947845;28;20069;-63
2023/05/09 00:33:01;;;;;;;9.27;1.60;;;;;;;;;;4954489;28;20053;-65
2023/05/09 00:35:27;;;;;;;5.93;1.30;;;;;;;;;;4949077;28;20525;-64
2023/05/09 00:37:53;;;;;;;6.57;1.90;;;;;;;;;;4950506;28;20634;-63
2023/05/09 00:40:19;;;;;;;5.95;1.40;;;;;;;;;;4935311;28;20095;-63
2023/05/09 00:42:45;;;;;;;6.80;1.60;;;;;;;;;;4949297;28;20031;-64
2023/05/09 00:45:11;;;;;;;;;;;;;;;;;;4939068;28;20531;-64
2023/05/09 00:47:38;;;;;;;6.60;1.65;;;;;;;;;;4951560;28;19960;-64
2023/05/09 00:50:04;;;;;;;9.35;1.60;;;;;;;;;;4951370;28;20063;-64
2023/05/09 00:52:32;;;;;;;6.38;1.63;;;;;;;;;;4937132;28;20065;-64
2023/05/09 00:54:59;;;;;;;6.82;1.42;;;;;;;;;;4952477;28;20591;-65
2023/05/09 00:57:25;;;;;;;5.82;1.38;;;;;;;;;;4935410;28;20417;-65
2023/05/09 00:59:51;;;;;;;;;;;;;;;;;;4953997;28;20550;-65
2023/05/09 01:02:18;;;;;;;6.43;1.30;;;;;;;;;;4955436;28;19917;-65
2023/05/09 01:04:47;;;;;;;5.43;1.50;;;;;;;;;;4947216;28;20622;-64
2023/05/09 01:07:17;;;;;;;7.38;1.55;;;;;;;;;;4950170;28;20105;-65
2023/05/09 01:09:46;;;;;;;5.95;1.20;;;;;;;;;;4930112;28;20047;-65
2023/05/09 01:12:16;;;;;;;5.70;1.48;;;;;;;;;;4937998;28;20396;-65
2023/05/09 01:14:54;;;;;;;5.18;1.48;;;;;;;;;;4948194;28;20039;-63
2023/05/09 01:17:23;;;;;;;6.95;1.67;;;;;;;;;;4931831;28;20031;-63
2023/05/09 01:19:53;;;;;;;13.50;1.60;;;;;;;;;;4948090;28;20062;-63
2023/05/09 01:22:21;;;;;;;5.63;1.55;;;;;;;;;;4951788;28;20840;-63
2023/05/09 01:24:48;;;;;;;6.97;1.40;;;;;;;;;;4929781;28;20047;-64
2023/05/09 01:27:13;;;;;;;;;;;;;;;;;;4953094;28;20058;-64
2023/05/09 01:29:43;;;;;;;6.85;1.80;;;;;;;;;;4931047;28;19971;-65
2023/05/09 01:32:10;;;;;;;12.40;8.52;;;;;;;;;;4954216;28;20054;-65
2023/05/09 01:34:38;;;;;;;9.85;5.38;;;;;;;;;;4948256;28;20579;-65
2023/05/09 01:37:05;;;;;;;11.02;4.32;;;;;;;;;;4944152;28;20074;-65
2023/05/09 01:39:32;;;;;;;12.15;3.80;;;;;;;;;;4956513;28;20651;-65
2023/05/09 01:42:00;;;;;;;8.35;3.00;;;;;;;;;;4951425;28;20118;-64
2023/05/09 01:44:29;;;;;;;6.45;2.10;;;;;;;;;;4952294;28;20078;-65
2023/05/09 01:46:55;;;;;;;8.00;1.90;;;;;;;;;;4951818;28;20042;-65
2023/05/09 01:49:22;;;;;;;6.03;1.52;;;;;;;;;;4937191;28;20043;-64
2023/05/09 01:51:48;;;;;;;6.93;1.60;;;;;;;;;;4945207;28;20062;-64
2023/05/09 01:54:16;;;;;;;5.35;1.40;;;;;;;;;;4934586;28;20031;-65
2023/05/09 01:56:42;;;;;;;5.85;1.50;;;;;;;;;;4949323;28;20034;-65
2023/05/09 01:59:14;;;;;;;5.53;1.20;;;;;;;;;;4932715;28;20346;-64
2023/05/09 02:01:40;;;;;;;5.55;1.30;;;;;;;;;;4941174;28;20031;-64
2023/05/09 02:04:07;;;;;;;4.50;1.05;;;;;;;;;;4948784;28;20035;-64
2023/05/09 02:06:33;;;;;;;;;;;;;;;;;;4929311;28;20425;-64
2023/05/09 02:08:59;;;;;;;6.90;1.50;;;;;;;;;;4950040;28;19914;-64
2023/05/09 02:11:25;;;;;;;5.35;1.33;;;;;;;;;;4950936;28;20355;-64
2023/05/09 02:13:51;;;;;;;;;;;;;;;;;;4947553;28;20467;-64
2023/05/09 02:16:17;;;;;;;4.43;1.20;;;;;;;;;;4946054;28;20012;-64
2023/05/09 02:18:43;;;;;;;;;;;;;;;;;;4953768;28;20328;-64
2023/05/09 02:21:09;;;;;;;4.13;1.20;;;;;;;;;;4955776;28;20272;-64
2023/05/09 02:23:36;;;;;;;5.07;1.23;;;;;;;;;;4952049;28;20537;-64
2023/05/09 02:26:02;;;;;;;;;;;;;;;;;;4952212;28;20023;-64
2023/05/09 02:28:28;;;;;;;7.03;1.40;;;;;;;;;;4934695;28;19930;-64
2023/05/09 02:30:55;;;;;;;5.30;1.40;;;;;;;;;;4948864;28;20039;-64
2023/05/09 02:33:21;;;;;;;5.53;1.40;;;;;;;;;;4937721;28;20038;-64
2023/05/09 02:35:48;;;;;;;7.70;1.23;;;;;;;;;;4932962;28;20063;-64
2023/05/09 02:38:15;;;;;;;4.80;1.00;;;;;;;;;;4957273;28;20030;-64
2023/05/09 02:40:43;;;;;;;4.90;1.35;;;;;;;;;;4936613;28;20035;-64
2023/05/09 02:43:09;;;;;;;3.65;0.95;;;;;;;;;;4936373;28;20203;-64
2023/05/09 02:45:35;;;;;;;5.32;1.13;;;;;;;;;;4950476;28;20064;-64
2023/05/09 02:48:01;;;;;;;6.63;1.30;;;;;;;;;;4934151;28;20672;-64
2023/05/09 02:50:28;;;;;;;;;;;;;;;;;;4938232;28;20031;-64
2023/05/09 02:52:54;;;;;;;5.35;1.45;;;;;;;;;;4932120;28;20036;-64
2023/05/09 02:55:20;;;;;;;;;;;;;;;;;;4936631;28;20031;-64
2023/05/09 02:57:46;;;;;;;5.50;1.50;;;;;;;;;;4949896;28;20374;-64
2023/05/09 03:00:12;;;;;;;;;;;;;;;;;;4952536;28;20070;-64
2023/05/09 03:02:38;;;;;;;6.38;1.30;;;;;;;;;;4950569;28;19922;-64
2023/05/09 03:05:05;;;;;;;6.15;1.33;;;;;;;;;;4928487;28;20121;-64
2023/05/09 03:07:31;;;;;;;6.10;1.63;;;;;;;;;;4949435;28;20057;-65
2023/05/09 03:09:57;;;;;;;;;;;;;;;;;;4949687;28;20068;-64
2023/05/09 03:12:23;;;;;;;7.18;1.80;;;;;;;;;;4948337;28;19918;-64
2023/05/09 03:14:49;;;;;;;7.50;1.77;;;;;;;;;;4945886;28;20045;-64
2023/05/09 03:17:19;;;;;;;;;;;;;;;;;;4951654;28;20552;-64
2023/05/09 03:19:47;;;;;;;6.60;1.77;;;;;;;;;;4947139;28;20331;-64
2023/05/09 03:22:13;;;;;;;7.75;1.60;;;;;;;;;;4947108;28;20043;-64
2023/05/09 03:24:39;;;;;;;6.88;1.70;;;;;;;;;;4942807;28;20022;-64
2023/05/09 03:27:05;;;;;;;6.90;1.48;;;;;;;;;;4929374;28;20504;-64
2023/05/09 03:29:32;;;;;;;5.55;1.80;;;;;;;;;;4932899;28;20161;-64
2023/05/09 03:31:58;;;;;;;4.45;1.40;;;;;;;;;;4951959;28;20042;-64
2023/05/09 03:34:24;;;;;;;;;;;;;;;;;;4933270;28;20077;-64
2023/05/09 03:36:50;;;;;;;8.48;1.55;;;;;;;;;;4940936;28;20456;-64
2023/05/09 03:39:16;;;;;;;;;;;;;;;;;;4925352;28;20063;-64
2023/05/09 03:41:43;;;;;;;6.10;1.50;;;;;;;;;;4945439;28;20452;-64
2023/05/09 03:44:09;;;;;;;5.60;1.30;;;;;;;;;;4945971;28;20150;-64
2023/05/09 03:46:35;;;;;;;7.68;1.85;;;;;;;;;;4946071;28;20045;-64
2023/05/09 03:49:03;;;;;;;;;;;;;;;;;;4949240;28;20027;-64
2023/05/09 03:51:29;;;;;;;6.40;1.50;;;;;;;;;;4947125;28;19953;-63
2023/05/09 03:53:55;;;;;;;9.02;1.88;;;;;;;;;;4940524;28;20035;-64
2023/05/09 03:56:21;;;;;;;;;;;;;;;;;;4947357;28;20042;-64
2023/05/09 03:58:47;;;;;;;6.47;1.77;;;;;;;;;;4944756;28;20452;-64
2023/05/09 04:01:14;;;;;;;5.35;1.30;;;;;;;;;;4948586;28;20373;-63
2023/05/09 04:03:41;;;;;;;8.25;1.50;;;;;;;;;;4947259;28;20038;-63
2023/05/09 04:06:07;;;;;;;6.57;1.52;;;;;;;;;;4934329;28;20035;-63
2023/05/09 04:08:33;;;;;;;6.03;1.40;;;;;;;;;;4941231;28;20042;-63
2023/05/09 04:10:59;;;;;;;4.95;1.38;;;;;;;;;;4949266;28;20034;-65
2023/05/09 04:13:26;;;;;;;;;;;;;;;;;;4952695;28;20030;-64
2023/05/09 04:15:52;;;;;;;;;;;;;;;;;;4941304;28;21347;-64
2023/05/09 04:18:19;;;;;;;4.63;1.30;;;;;;;;;;4948285;28;19960;-63
2023/05/09 04:20:45;;;;;;;5.22;1.30;;;;;;;;;;4930475;28;20035;-63
2023/05/09 04:23:11;;;;;;;;;;;;;;;;;;4933668;28;20031;-64
2023/05/09 04:25:37;;;;;;;5.78;1.38;;;;;;;;;;4931064;28;19920;-64
2023/05/09 04:28:03;;;;;;;4.50;1.25;;;;;;;;;;4932510;28;20364;-65
2023/05/09 04:30:29;;;;;;;;;;;;;;;;;;4934815;28;20030;-64
2023/05/09 04:32:55;;;;;;;6.82;1.50;;;;;;;;;;4943511;28;19921;-64
2023/05/09 04:35:21;;;;;;;7.05;1.67;;;;;;;;;;4948136;28;20201;-64
2023/05/09 04:37:48;;;;;;;5.45;1.45;;;;;;;;;;4931504;28;20034;-65
2023/05/09 04:40:14;;;;;;;6.25;1.50;;;;;;;;;;4934697;28;20558;-65
2023/05/09 04:42:41;;;;;;;4.85;1.48;;;;;;;;;;4950166;28;20026;-64
2023/05/09 04:45:08;;;;;;;5.45;1.50;;;;;;;;;;4949688;28;20117;-64
2023/05/09 04:47:34;;;;;;;7.97;1.77;;;;;;;;;;4944437;28;20023;-64
2023/05/09 04:50:00;;;;;;;9.80;1.83;;;;;;;;;;4945281;28;20308;-64
2023/05/09 04:52:26;;;;;;;;;;;;;;;;;;4945663;28;20423;-64
2023/05/09 04:54:52;;;;;;;13.52;2.45;;;;;;;;;;4929278;28;19921;-64
2023/05/09 04:57:18;;;;;;;11.05;2.53;;;;;;;;;;4950168;28;20035;-64
2023/05/09 04:59:44;;;;;;;;;;;;;;;;;;4933476;28;20394;-64
2023/05/09 05:02:11;;;;;;;8.38;2.25;;;;;;;;;;4944970;28;19922;-64
2023/05/09 05:04:37;;;;;;;8.50;2.08;;;;;;;;;;4945906;28;20372;-64
2023/05/09 05:07:04;;;;;;;10.32;2.13;;;;;;;;;;4946007;28;20419;-66
2023/05/09 05:09:30;;;;;;;7.15;1.90;;;;;;;;;;4931074;28;20028;-63
2023/05/09 05:11:56;;;;;;;6.32;1.85;;;;;;;;;;4942935;28;20090;-63
2023/05/09 05:14:22;;;;;;;;;;;;;;;;;;4931552;28;20252;-64
2023/05/09 05:16:48;;;;;;;7.97;1.88;;;;;;;;;;4944105;28;19940;-66
2023/05/09 05:19:14;;;;;;;11.65;2.28;;;;;;;;;;4950025;28;20236;-65
2023/05/09 05:21:40;;;;;;;21.42;3.35;;;;;;;;;;4942829;28;20035;-65
2023/05/09 05:24:07;;;;;;;11.65;2.58;;;;;;;;;;4948339;28;20462;-65
2023/05/09 05:26:33;;;;;;;5.72;1.70;;;;;;;;;;4945471;28;20125;-64
2023/05/09 05:28:59;;;;;;;9.95;2.20;;;;;;;;;;4937868;28;20062;-64
2023/05/09 05:31:25;;;;;;;6.53;1.90;;;;;;;;;;4948262;28;20039;-63
2023/05/09 05:33:51;;;;;;;7.63;1.70;;;;;;;;;;4951394;28;20353;-65
2023/05/09 05:36:17;;;;;;;;;;;;;;;;;;4934014;28;20476;-65
2023/05/09 05:38:44;;;;;;;9.02;2.00;;;;;;;;;;4951208;28;19993;-65
2023/05/09 05:41:10;;;;;;;6.55;1.73;;;;;;;;;;4955370;28;20034;-65
2023/05/09 05:43:36;;;;;;;10.95;1.85;;;;;;;;;;4949558;28;20035;-65
2023/05/09 05:46:02;;;;;;;7.68;1.95;;;;;;;;;;4945140;28;20057;-63
2023/05/09 05:48:29;;;;;;;7.13;1.55;;;;;;;;;;4932503;28;20441;-63
2023/05/09 05:50:55;;;;;;;5.38;1.50;;;;;;;;;;4944065;28;20027;-63
2023/05/09 05:53:21;;;;;;;5.97;1.63;;;;;;;;;;4930501;28;20117;-65
2023/05/09 05:55:48;;;;;;;;;;;;;;;;;;4926380;28;20540;-65
2023/05/09 05:58:14;;;;;;;7.53;1.55;;;;;;;;;;4928579;28;20083;-65
2023/05/09 06:00:40;;;;;;;5.60;1.33;;;;;;;;;;4944185;28;20527;-63
2023/05/09 06:03:06;;;;;;;5.88;1.63;;;;;;;;;;4945628;28;20038;-63
2023/05/09 06:05:33;;;;;;;7.53;2.03;;;;;;;;;;4932761;28;20026;-65
2023/05/09 06:07:59;;;;;;;6.95;2.10;;;;;;;;;;4948935;28;20033;-63
2023/05/09 06:10:25;;;;;;;9.50;2.38;;;;;;;;;;4935179;28;20039;-66
2023/05/09 06:12:51;;;;;;;7.15;2.20;;;;;;;;;;4948709;28;20431;-64
2023/05/09 06:15:17;;;;;;;;;;;;;;;;;;4945206;28;20050;-63
2023/05/09 06:17:43;;;;;;;6.30;1.77;;;;;;;;;;4943089;28;20263;-64
2023/05/09 06:20:09;;;;;;;10.75;2.05;;;;;;;;;;4930945;28;20112;-64
2023/05/09 06:22:35;;;;;;;9.98;2.03;;;;;;;;;;4944705;28;20037;-63
2023/05/09 06:25:02;;;;;;;7.78;1.92;;;;;;;;;;4948322;28;20093;-66
2023/05/09 06:27:28;;;;;;;14.32;2.45;;;;;;;;;;4931244;28;20154;-64
2023/05/09 06:29:54;;;;;;;8.48;2.28;;;;;;;;;;4940775;28;20981;-65
2023/05/09 06:32:20;;;;;;;8.75;2.17;;;;;;;;;;4929515;28;20086;-65
2023/05/09 06:34:47;;;;;;;7.88;2.40;;;;;;;;;;4929636;28;20075;-65
2023/05/09 06:37:13;;;;;;;8.70;2.60;;;;;;;;;;4946447;28;20027;-65
2023/05/09 06:39:39;;;;;;;9.20;2.53;;;;;;;;;;4945752;28;20504;-65
2023/05/09 06:42:05;;;;;;;8.07;2.20;;;;;;;;;;4933353;28;20035;-65
2023/05/09 06:44:31;;;;;;;8.50;2.83;;;;;;;;;;4943106;28;20140;-66
2023/05/09 06:46:58;;;;;;;12.07;3.50;;;;;;;;;;4929418;28;20196;-65
2023/05/09 06:49:24;;;;;;;11.38;2.80;;;;;;;;;;4950004;28;20039;-64
2023/05/09 06:51:50;;;;;;;13.25;3.38;;;;;;;;;;4927577;28;20489;-64
2023/05/09 06:54:16;;;;;;;12.35;3.80;;;;;;;;;;4946867;28;20038;-64
2023/05/09 06:56:42;;;;;;;16.60;6.15;;;;;;;;;;4945473;28;20031;-63
2023/05/09 06:59:12;;;;;;;18.80;6.57;;;;;;;;;;4943446;28;20039;-64
2023/05/09 07:01:39;;;;;;;16.38;6.25;;;;;;;;;;4927560;28;20042;-64
2023/05/09 07:04:05;;;;;;;20.15;6.43;;;;;;;;;;4947781;28;20058;-64
2023/05/09 07:06:32;;;;;;;16.15;5.63;;;;;;;;;;4930329;28;20037;-64
2023/05/09 07:08:58;;;;;;;19.35;6.78;;;;;;;;;;4942612;28;20123;-64
2023/05/09 07:11:24;;;;;;;13.98;4.82;;;;;;;;;;4931855;28;20053;-64
2023/05/09 07:13:50;;;;;;;26.38;5.90;;;;;;;;;;4944237;28;20039;-64
2023/05/09 07:16:21;;;;;;;9.52;3.10;;;;;;;;;;4947833;28;20042;-64
2023/05/09 07:18:47;;;;;;;12.15;3.20;;;;;;;;;;4943671;28;20104;-64
2023/05/09 07:21:13;;;;;;;10.45;3.15;;;;;;;;;;4945373;28;20126;-64
2023/05/09 07:23:40;;;;;;;10.38;3.38;;;;;;;;;;4938762;28;20069;-64
2023/05/09 07:26:06;;;;;;;10.60;3.40;;;;;;;;;;4926317;28;20121;-64
2023/05/09 07:28:32;;;;;;;12.07;3.22;;;;;;;;;;4926326;28;20085;-64
2023/05/09 07:30:59;;;;;;;11.75;3.80;;;;;;;;;;4940850;28;20136;-64
2023/05/09 07:33:25;;;;;;;10.75;3.30;;;;;;;;;;4945087;28;20556;-63
2023/05/09 07:35:52;;;;;;;9.05;1.95;;;;;;;;;;4942729;28;20440;-64
2023/05/09 07:38:18;;;;;;;7.72;1.80;;;;;;;;;;4931433;28;20045;-64
2023/05/09 07:40:44;;;;;;;7.40;1.70;;;;;;;;;;4925029;28;20027;-64
2023/05/09 07:43:10;;;;;;;6.88;1.88;;;;;;;;;;4929174;28;20030;-63
2023/05/09 07:45:36;;;;;;;8.98;1.65;;;;;;;;;;4944319;28;20035;-64
2023/05/09 07:48:03;;;;;;;8.50;1.45;;;;;;;;;;4948957;28;20580;-64
2023/05/09 07:50:29;;;;;;;7.47;1.50;;;;;;;;;;4949838;28;20193;-64
2023/05/09 07:52:55;;;;;;;7.97;1.77;;;;;;;;;;4942937;28;20370;-64
2023/05/09 07:55:21;;;;;;;10.32;1.98;;;;;;;;;;4945326;28;20273;-64
2023/05/09 07:57:47;;;;;;;5.72;1.60;;;;;;;;;;4941883;28;20149;-65
2023/05/09 08:00:14;;;;;;;7.68;1.30;;;;;;;;;;4944984;28;20138;-65
2023/05/09 08:02:40;;;;;;;9.80;1.45;;;;;;;;;;4925145;28;20042;-64
2023/05/09 08:05:06;;;;;;;5.47;1.33;;;;;;;;;;4948712;28;20445;-64
2023/05/09 08:07:33;;;;;;;6.40;1.40;;;;;;;;;;4945944;28;20071;-64
2023/05/09 08:09:59;;;;;;;3.38;0.90;;;;;;;;;;4946629;28;20029;-64
2023/05/09 08:12:25;;;;;;;3.72;1.10;;;;;;;;;;4948270;28;20042;-66
2023/05/09 08:14:51;;;;;;;6.40;1.10;;;;;;;;;;4939738;28;20122;-64
2023/05/09 08:17:17;;;;;;;4.72;1.13;;;;;;;;;;4941498;28;20064;-64
2023/05/09 08:19:43;;;;;;;3.38;0.77;;;;;;;;;;4941059;28;20231;-66
2023/05/09 08:22:15;;;;;;;4.07;0.88;;;;;;;;;;4943145;28;20035;-65
2023/05/09 08:24:42;;;;;;;2.97;0.82;;;;;;;;;;4943281;28;20326;-63
2023/05/09 08:27:08;;;;;;;3.83;1.00;;;;;;;;;;4924327;28;20050;-65
2023/05/09 08:29:34;;;;;;;3.88;1.02;;;;;;;;;;4939766;28;20389;-66
2023/05/09 08:32:00;;;;;;;3.25;0.85;;;;;;;;;;4941777;28;20074;-67
2023/05/09 08:34:26;;;;;;;6.47;1.00;;;;;;;;;;4928692;28;20828;-66
2023/05/09 08:36:52;;;;;;;2.65;0.70;;;;;;;;;;4940192;28;21174;-66
2023/05/09 08:39:19;;;;;;;6.40;1.02;;;;;;;;;;4930830;28;20062;-66
2023/05/09 08:41:45;;;;;;;4.57;0.95;;;;;;;;;;4943617;28;20138;-66
2023/05/09 08:44:11;;;;;;;3.75;0.80;;;;;;;;;;4928775;28;20465;-66
2023/05/09 08:46:38;;;;;;;3.50;0.82;;;;;;;;;;4942617;28;20111;-66
2023/05/09 08:49:06;;;;;;;3.13;0.90;;;;;;;;;;4946906;28;20552;-65
2023/05/09 08:51:32;;;;;;;6.28;1.00;;;;;;;;;;4927050;28;20026;-65
2023/05/09 08:53:58;;;;;;;5.38;1.00;;;;;;;;;;4939721;28;20039;-65
2023/05/09 08:56:25;;;;;;;2.97;0.73;;;;;;;;;;4945463;28;20038;-63
2023/05/09 08:58:52;;;;;;;3.25;0.80;;;;;;;;;;4946489;28;20545;-64
2023/05/09 09:01:18;;;;;;;5.50;0.85;;;;;;;;;;4946748;28;20034;-65
2023/05/09 09:03:48;;;;;;;7.93;1.30;;;;;;;;;;4930251;28;20196;-66
2023/05/09 09:06:15;;;;;;;11.65;1.60;;;;;;;;;;4950074;28;20049;-65
2023/05/09 09:08:41;;;;;;;6.05;1.10;;;;;;;;;;4942832;28;20034;-66
2023/05/09 09:11:10;;;;;;;7.43;1.10;;;;;;;;;;4930689;28;20027;-66
2023/05/09 09:13:37;;;;;;;5.60;1.00;;;;;;;;;;4926930;28;20035;-66
2023/05/09 09:16:04;;;;;;;5.20;1.00;;;;;;;;;;4948330;28;20031;-66
2023/05/09 09:18:33;;;;;;;5.78;1.10;;;;;;;;;;4948608;28;20121;-66
2023/05/09 09:21:06;;;;;;;3.10;0.85;;;;;;;;;;4945200;28;20027;-65
2023/05/09 09:23:33;;;;;;;3.65;0.93;;;;;;;;;;4944998;28;20245;-66
2023/05/09 09:25:59;;;;;;;4.38;1.05;;;;;;;;;;4935116;28;20849;-64
2023/05/09 09:28:26;;;;;;;4.03;0.90;;;;;;;;;;4930031;28;20094;-66
2023/05/09 09:30:52;;;;;;;6.65;1.23;;;;;;;;;;4939348;28;20034;-66
2023/05/09 09:33:21;;;;;;;4.70;0.98;;;;;;;;;;4943070;28;20065;-65
2023/05/09 09:35:48;;;;;;;3.38;0.93;;;;;;;;;;4945227;28;20039;-65
2023/05/09 09:38:15;;;;;;;6.97;1.23;;;;;;;;;;4948101;28;20585;-64
2023/05/09 09:40:48;;;;;;;6.55;1.25;;;;;;;;;;4946377;28;20061;-65
2023/05/09 09:43:14;;;;;;;4.25;0.88;;;;;;;;;;4948584;28;20041;-65
2023/05/09 09:45:41;;;;;;;3.53;0.90;;;;;;;;;;4930388;28;20031;-66
2023/05/09 09:48:07;;;;;;;3.47;0.73;;;;;;;;;;4945943;28;20101;-67
2023/05/09 09:50:33;;;;;;;3.67;0.80;;;;;;;;;;4943237;28;20039;-66
2023/05/09 09:53:00;;;;;;;5.88;0.95;;;;;;;;;;4943941;28;20291;-69
2023/05/09 09:55:26;;;;;;;5.35;0.70;;;;;;;;;;4927318;28;20442;-70
2023/05/09 09:57:52;;;;;;;3.13;0.77;;;;;;;;;;4920746;28;20567;-69
2023/05/09 10:00:20;;;;;;;6.57;1.00;;;;;;;;;;4945993;28;20035;-69
2023/05/09 10:02:49;;;;;;;2.33;0.73;;;;;;;;;;4944506;28;20031;-68
2023/05/09 10:05:37;;;;;;;4.97;0.80;;;;;;;;;;4946485;28;20097;-69
2023/05/09 10:08:06;;;;;;;3.83;0.80;;;;;;;;;;4947704;28;20078;-69
2023/05/09 10:10:34;;;;;;;4.30;1.00;;;;;;;;;;4932095;28;20037;-69
2023/05/09 10:13:04;;;;;;;3.17;0.70;;;;;;;;;;4950508;28;20043;-69
2023/05/09 10:15:31;;;;;;;6.03;1.17;;;;;;;;;;4944381;28;20093;-68
2023/05/09 10:17:58;;;;;;;6.53;1.20;;;;;;;;;;4944196;28;20031;-69
2023/05/09 10:20:25;;;;;;;4.05;1.00;;;;;;;;;;4947479;28;20105;-67
2023/05/09 10:22:55;;;;;;;3.90;0.88;;;;;;;;;;4926564;28;20187;-69
2023/05/09 10:25:27;;;;;;;5.20;1.00;;;;;;;;;;4930233;28;20034;-69
2023/05/09 10:27:55;;;;;;;6.88;1.17;;;;;;;;;;4941944;28;20055;-69
2023/05/09 10:30:28;;;;;;;7.45;1.08;;;;;;;;;;4947076;28;20089;-67
2023/05/09 10:33:02;;;;;;;8.63;1.10;;;;;;;;;;4925959;28;20039;-69
2023/05/09 10:35:35;;;;;;;3.88;0.93;;;;;;;;;;4946734;28;20042;-69
2023/05/09 10:38:02;;;;;;;7.28;1.13;;;;;;;;;;4945133;28;20907;-69
2023/05/09 10:40:28;;;;;;;4.00;0.90;;;;;;;;;;4928487;28;20122;-69
2023/05/09 10:42:54;;;;;;;5.07;1.00;;;;;;;;;;4942022;28;20035;-69
2023/05/09 10:45:21;;;;;;;2.47;0.75;;;;;;;;;;4931074;28;20049;-69
2023/05/09 10:47:48;;;;;;;3.88;1.10;;;;;;;;;;4926648;28;20268;-69
2023/05/09 10:50:15;;;;;;;6.25;1.10;;;;;;;;;;4947714;28;20034;-68
2023/05/09 10:53:01;;;;;;;5.45;1.00;;;;;;;;;;4925338;28;20027;-68
2023/05/09 10:55:36;;;;;;;6.53;1.00;;;;;;;;;;4950532;28;20062;-69
2023/05/09 10:58:18;;;;;;;6.95;2.13;;;;;;;;;;4950191;28;20166;-70
2023/05/09 11:00:44;;;;;;;6.32;1.30;;;;;;;;;;4936919;28;20061;-66
2023/05/09 11:03:11;;;;;;;3.83;0.75;;;;;;;;;;4946781;28;20038;-66
2023/05/09 11:05:40;;;;;;;3.90;0.82;;;;;;;;;;4945976;28;20521;-66
2023/05/09 11:08:26;;;;;;;4.85;1.00;;;;;;;;;;4945593;28;20122;-65
2023/05/09 11:10:53;;;;;;;3.05;0.95;;;;;;;;;;4923594;28;20027;-67
2023/05/09 11:13:22;;;;;;;6.18;1.13;;;;;;;;;;4943851;28;20039;-67
2023/05/09 11:15:50;;;;;;;5.75;1.13;;;;;;;;;;4943313;28;20572;-65
2023/05/09 11:18:17;;;;;;;4.45;1.10;;;;;;;;;;4947482;28;20041;-66
2023/05/09 11:20:44;;;;;;;5.25;1.00;;;;;;;;;;4927476;28;20393;-67
2023/05/09 11:23:10;;;;;;;5.32;1.10;;;;;;;;;;4930188;28;20039;-66
2023/05/09 11:25:38;;;;;;;6.90;1.20;;;;;;;;;;4943598;28;20031;-69
2023/05/09 11:28:05;;;;;;;3.28;0.85;;;;;;;;;;4939675;28;20078;-68
2023/05/09 11:30:41;;;;;;;5.35;0.93;;;;;;;;;;4948372;28;20037;-69
2023/05/09 11:33:21;;;;;;;5.38;0.90;;;;;;;;;;4945694;28;20039;-69
2023/05/09 11:35:49;;;;;;;3.13;0.75;;;;;;;;;;4929087;28;20022;-69
2023/05/09 11:38:21;;;;;;;4.13;1.00;;;;;;;;;;4947878;28;20034;-69
2023/05/09 11:40:51;;;;;;;4.60;0.90;;;;;;;;;;4945399;28;20031;-70
2023/05/09 11:43:18;;;;;;;4.90;0.82;;;;;;;;;;4946951;28;20690;-71
2023/05/09 11:45:45;;;;;;;4.40;1.00;;;;;;;;;;4941966;28;20114;-68
2023/05/09 11:48:12;;;;;;;3.83;0.82;;;;;;;;;;4944333;28;20030;-70
2023/05/09 11:50:39;;;;;;;15.57;1.13;;;;;;;;;;4944556;28;20015;-66
2023/05/09 11:53:07;;;;;;;5.55;0.77;;;;;;;;;;4922364;28;20550;-66
2023/05/09 11:55:37;;;;;;;3.15;0.90;;;;;;;;;;4941136;28;20048;-70
2023/05/09 11:58:06;;;;;;;6.65;0.90;;;;;;;;;;4944157;28;20045;-72
2023/05/09 12:00:32;;;;;;;6.50;0.90;;;;;;;;;;4945932;28;20041;-65
2023/05/09 12:02:59;;;;;;;4.65;0.90;;;;;;;;;;4942799;28;20038;-69
2023/05/09 12:05:25;;;;;;;7.53;0.80;;;;;;;;;;4930321;28;20457;-65
2023/05/09 12:07:51;;;;;;;4.78;0.90;;;;;;;;;;4944328;28;20274;-66
2023/05/09 12:10:22;;;;;;;3.53;0.85;;;;;;;;;;4926602;28;20041;-70
2023/05/09 12:12:49;;;;;;;3.40;0.80;;;;;;;;;;4943219;28;20038;-68
2023/05/09 12:15:15;;;;;;;5.35;1.13;;;;;;;;;;4933060;28;20661;-68
2023/05/09 12:17:46;;;;;;;6.10;0.90;;;;;;;;;;4945906;28;20160;-69
2023/05/09 12:20:12;;;;;;;6.65;1.10;;;;;;;;;;4946656;28;20462;-70
2023/05/09 12:22:41;;;;;;;5.53;0.90;;;;;;;;;;4941293;28;20086;-68
2023/05/09 12:25:09;;;;;;;3.63;0.60;;;;;;;;;;4945522;28;20480;-70
2023/05/09 12:27:36;;;;;;;4.43;0.90;;;;;;;;;;4944400;28;20054;-70
2023/05/09 12:30:09;;;;;;;6.28;0.90;;;;;;;;;;4945932;28;20041;-70
2023/05/09 12:32:36;;;;;;;4.70;0.85;;;;;;;;;;4924883;28;20050;-68
2023/05/09 12:35:02;;;;;;;3.72;0.90;;;;;;;;;;4941510;28;20037;-66
2023/05/09 12:37:31;;;;;;;4.75;1.00;;;;;;;;;;4937154;28;20042;-69
2023/05/09 12:40:04;;;;;;;3.05;0.80;;;;;;;;;;4940734;28;20052;-70
2023/05/09 12:42:31;;;;;;;3.90;0.73;;;;;;;;;;4940804;28;20491;-67
2023/05/09 12:44:57;;;;;;;4.68;0.85;;;;;;;;;;4943855;28;20027;-72
2023/05/09 12:47:28;;;;;;;5.40;0.93;;;;;;;;;;4946805;28;20031;-67
2023/05/09 12:49:58;;;;;;;5.32;1.10;;;;;;;;;;4941140;28;20031;-68
2023/05/09 12:52:24;;;;;;;5.70;0.93;;;;;;;;;;4939252;28;20039;-69
2023/05/09 12:54:51;;;;;;;6.82;0.93;;;;;;;;;;4941143;28;20030;-67
2023/05/09 12:57:22;;;;;;;6.63;1.00;;;;;;;;;;4946368;28;20034;-67
2023/05/09 12:59:48;;;;;;;6.55;1.20;;;;;;;;;;4942038;28;20042;-70
2023/05/09 13:02:14;;;;;;;4.57;1.05;;;;;;;;;;4930088;28;20045;-70
2023/05/09 13:04:40;;;;;;;4.35;1.10;;;;;;;;;;4945461;28;20057;-69
2023/05/09 13:07:10;;;;;;;5.07;1.25;;;;;;;;;;4929441;28;20683;-67
2023/05/09 13:09:36;;;;;;;5.30;0.98;;;;;;;;;;4940233;28;20153;-68
2023/05/09 13:12:03;;;;;;;5.50;1.20;;;;;;;;;;4942375;28;20031;-69
2023/05/09 13:14:29;;;;;;;5.07;0.90;;;;;;;;;;4945726;28;20515;-69
2023/05/09 13:16:55;;;;;;;5.57;1.27;;;;;;;;;;4927205;28;20433;-69
2023/05/09 13:19:21;;;;;;;5.45;1.33;;;;;;;;;;4947016;28;20057;-69
2023/05/09 13:21:47;;;;;;;7.35;1.13;;;;;;;;;;4927068;28;20035;-70
2023/05/09 13:24:14;;;;;;;5.22;1.20;;;;;;;;;;4941204;28;20035;-69
2023/05/09 13:26:40;;;;;;;4.55;1.08;;;;;;;;;;4942305;28;20038;-72
2023/05/09 13:29:06;;;;;;;5.25;1.17;;;;;;;;;;4943266;28;20034;-70
2023/05/09 13:31:32;;;;;;;4.70;1.20;;;;;;;;;;4926512;28;20224;-70
2023/05/09 13:33:59;;;;;;;5.82;1.30;;;;;;;;;;4927204;28;20470;-70
2023/05/09 13:36:25;;;;;;;6.22;1.60;;;;;;;;;;4930650;28;20197;-70
2023/05/09 13:38:51;;;;;;;4.78;1.00;;;;;;;;;;4943002;28;20039;-70
2023/05/09 13:41:22;;;;;;;7.35;1.40;;;;;;;;;;4946979;28;20308;-70
2023/05/09 13:43:48;;;;;;;5.30;1.10;;;;;;;;;;4927301;28;20034;-70
2023/05/09 13:46:14;;;;;;;5.82;1.27;;;;;;;;;;4942372;28;21084;-70
2023/05/09 13:48:41;;;;;;;8.57;1.30;;;;;;;;;;4937419;28;20042;-70
2023/05/09 13:51:07;;;;;;;5.20;1.20;;;;;;;;;;4944457;28;20449;-70
2023/05/09 13:53:33;;;;;;;5.82;1.48;;;;;;;;;;4945890;28;20035;-70
2023/05/09 13:55:59;;;;;;;4.78;1.13;;;;;;;;;;4949809;28;20558;-71
2023/05/09 13:58:26;;;;;;;5.93;1.08;;;;;;;;;;4945158;28;20466;-70
2023/05/09 14:00:52;;;;;;;4.88;1.20;;;;;;;;;;4942740;28;20038;-70
2023/05/09 14:03:18;;;;;;;5.93;1.40;;;;;;;;;;4946730;28;20840;-71
2023/05/09 14:05:44;;;;;;;8.23;1.25;;;;;;;;;;4929166;28;20035;-71
2023/05/09 14:08:11;;;;;;;6.93;1.23;;;;;;;;;;4949370;28;20018;-71
2023/05/09 14:10:37;;;;;;;7.10;1.30;;;;;;;;;;4943150;28;20065;-71
2023/05/09 14:13:03;;;;;;;5.65;1.30;;;;;;;;;;4944907;28;20037;-72
2023/05/09 14:15:29;;;;;;;5.50;1.30;;;;;;;;;;4943950;28;20038;-71
2023/05/09 14:17:55;;;;;;;6.25;1.50;;;;;;;;;;4944258;28;20038;-70
2023/05/09 14:20:21;;;;;;;5.85;1.23;;;;;;;;;;4945161;28;20715;-70
2023/05/09 14:22:48;;;;;;;7.13;1.27;;;;;;;;;;4943991;28;20692;-69
2023/05/09 14:25:14;;;;;;;8.27;1.45;;;;;;;;;;4945391;28;20129;-71
2023/05/09 14:27:40;;;;;;;10.68;1.70;;;;;;;;;;4944834;28;20505;-71
2023/05/09 14:30:07;;;;;;;6.32;1.27;;;;;;;;;;4945298;28;20149;-70
2023/05/09 14:32:33;;;;;;;6.63;1.33;;;;;;;;;;4947874;28;20027;-70
2023/05/09 14:34:59;;;;;;;6.68;1.25;;;;;;;;;;4925267;28;20035;-70
2023/05/09 14:37:26;;;;;;;7.65;1.55;;;;;;;;;;4930554;28;20041;-70
2023/05/09 14:39:52;;;;;;;6.03;1.27;;;;;;;;;;4945136;28;20536;-71
2023/05/09 14:42:18;;;;;;;6.25;1.40;;;;;;;;;;4928250;28;20027;-71
2023/05/09 14:44:46;;;;;;;7.90;1.48;;;;;;;;;;4943601;28;20031;-71
2023/05/09 14:47:12;;;;;;;5.40;1.23;;;;;;;;;;4948256;28;20027;-71
2023/05/09 14:49:38;;;;;;;6.13;1.33;;;;;;;;;;4924886;28;20481;-70